sensor_id;sensor_type;location;lat;lon;timestamp;temperature;humidity
48836;DHT22;62581;47.342;7.908;2023-05-10T00:01:22;13.90;99.90
48836;DHT22;62581;47.342;7.908;2023-05-10T00:03:49;13.90;99.90
48836;DHT22;62581;47.342;7.908;2023-05-10T00:06:15;13.80;99.90
48836;DHT22;62581;47.342;7.908;2023-05-10T00:08:43;13.80;99.90
48836;DHT22;62581;47.342;7.908;2023-05-10T00:11:12;13.80;99.90
48836;DHT22;62581;47.342;7.908;2023-05-10T00:13:38;13.80;99.90
48836;DHT22;62581;47.342;7.908;2023-05-10T00:16:05;13.90;99.90
48836;DHT22;62581;47.342;7.908;2023-05-10T00:18:32;13.90;99.90
48836;DHT22;62581;47.342;7.908;2023-05-10T00:20:59;13.90;99.90
48836;DHT22;62581;47.342;7.908;2023-05-10T00:23:26;13.90;99.90
48836;DHT22;62581;47.342;7.908;2023-05-10T00:25:52;13.90;99.90
48836;DHT22;62581;47.342;7.908;2023-05-10T00:28:21;14.00;99.90
48836;DHT22;62581;47.342;7.908;2023-05-10T00:30:47;13.90;99.90
48836;DHT22;62581;47.342;7.908;2023-05-10T00:33:14;13.90;99.90
48836;DHT22;62581;47.342;7.908;2023-05-10T00:35:41;14.00;99.90
48836;DHT22;62581;47.342;7.908;2023-05-10T00:38:08;13.90;99.90
48836;DHT22;62581;47.342;7.908;2023-05-10T00:40:35;14.00;99.90
48836;DHT22;62581;47.342;7.908;2023-05-10T00:43:02;13.90;99.90
48836;DHT22;62581;47.342;7.908;2023-05-10T00:45:30;14.00;99.90
48836;DHT22;62581;47.342;7.908;2023-05-10T00:47:57;13.90;99.90
48836;DHT22;62581;47.342;7.908;2023-05-10T00:50:25;13.90;99.90
48836;DHT22;62581;47.342;7.908;2023-05-10T00:52:52;13.90;99.90
48836;DHT22;62581;47.342;7.908;2023-05-10T00:55:19;13.90;99.90
48836;DHT22;62581;47.342;7.908;2023-05-10T00:57:46;13.90;99.90
48836;DHT22;62581;47.342;7.908;2023-05-10T01:00:13;14.00;99.90
48836;DHT22;62581;47.342;7.908;2023-05-10T01:02:45;13.90;99.90
48836;DHT22;62581;47.342;7.908;2023-05-10T01:05:12;13.90;99.90
48836;DHT22;62581;47.342;7.908;2023-05-10T01:07:39;13.90;99.90
48836;DHT22;62581;47.342;7.908;2023-05-10T01:10:06;13.90;99.90
48836;DHT22;62581;47.342;7.908;2023-05-10T01:12:33;13.90;99.90
48836;DHT22;62581;47.342;7.908;2023-05-10T01:15:02;13.90;99.90
48836;DHT22;62581;47.342;7.908;2023-05-10T01:17:29;13.90;99.90
48836;DHT22;62581;47.342;7.908;2023-05-10T01:19:58;13.90;99.90
48836;DHT22;62581;47.342;7.908;2023-05-10T01:22:30;13.90;99.90
48836;DHT22;62581;47.342;7.908;2023-05-10T01:25:18;13.90;99.90
48836;DHT22;62581;47.342;7.908;2023-05-10T01:28:04;13.80;99.90
48836;DHT22;62581;47.342;7.908;2023-05-10T01:33:23;13.90;99.90
48836;DHT22;62581;47.342;7.908;2023-05-10T01:35:55;13.90;99.90
48836;DHT22;62581;47.342;7.908;2023-05-10T01:38:40;13.80;99.90
48836;DHT22;62581;47.342;7.908;2023-05-10T01:41:11;13.80;99.90
48836;DHT22;62581;47.342;7.908;2023-05-10T01:43:41;13.70;99.90
48836;DHT22;62581;47.342;7.908;2023-05-10T01:46:14;13.80;99.90
48836;DHT22;62581;47.342;7.908;2023-05-10T01:48:47;13.70;99.90
48836;DHT22;62581;47.342;7.908;2023-05-10T01:51:14;13.70;99.90
48836;DHT22;62581;47.342;7.908;2023-05-10T01:53:43;13.70;99.90
48836;DHT22;62581;47.342;7.908;2023-05-10T01:56:11;13.70;99.90
48836;DHT22;62581;47.342;7.908;2023-05-10T01:58:38;13.70;99.90
48836;DHT22;62581;47.342;7.908;2023-05-10T02:01:07;13.80;99.90
48836;DHT22;62581;47.342;7.908;2023-05-10T02:03:34;13.70;99.90
48836;DHT22;62581;47.342;7.908;2023-05-10T02:06:03;13.70;99.90
48836;DHT22;62581;47.342;7.908;2023-05-10T02:08:31;13.70;99.90
48836;DHT22;62581;47.342;7.908;2023-05-10T02:10:59;13.70;99.90
48836;DHT22;62581;47.342;7.908;2023-05-10T02:13:26;13.80;99.90
48836;DHT22;62581;47.342;7.908;2023-05-10T02:15:53;13.80;99.90
48836;DHT22;62581;47.342;7.908;2023-05-10T02:18:21;13.70;99.90
48836;DHT22;62581;47.342;7.908;2023-05-10T02:20:48;13.70;99.90
48836;DHT22;62581;47.342;7.908;2023-05-10T02:23:18;13.60;99.90
48836;DHT22;62581;47.342;7.908;2023-05-10T02:25:45;13.70;99.90
48836;DHT22;62581;47.342;7.908;2023-05-10T02:28:13;13.70;99.90
48836;DHT22;62581;47.342;7.908;2023-05-10T02:30:40;13.70;99.90
48836;DHT22;62581;47.342;7.908;2023-05-10T02:33:08;13.60;99.90
48836;DHT22;62581;47.342;7.908;2023-05-10T02:35:35;13.60;99.90
48836;DHT22;62581;47.342;7.908;2023-05-10T02:38:02;13.60;99.90
48836;DHT22;62581;47.342;7.908;2023-05-10T02:40:32;13.60;99.90
48836;DHT22;62581;47.342;7.908;2023-05-10T02:42:59;13.60;99.90
48836;DHT22;62581;47.342;7.908;2023-05-10T02:45:29;13.50;99.90
48836;DHT22;62581;47.342;7.908;2023-05-10T02:47:56;13.50;99.90
48836;DHT22;62581;47.342;7.908;2023-05-10T02:50:23;13.50;99.90
48836;DHT22;62581;47.342;7.908;2023-05-10T02:52:52;13.50;99.90
48836;DHT22;62581;47.342;7.908;2023-05-10T02:55:21;13.50;99.90
48836;DHT22;62581;47.342;7.908;2023-05-10T02:57:51;13.50;99.90
48836;DHT22;62581;47.342;7.908;2023-05-10T03:00:18;13.50;99.90
48836;DHT22;62581;47.342;7.908;2023-05-10T03:02:45;13.50;99.90
48836;DHT22;62581;47.342;7.908;2023-05-10T03:05:11;13.50;99.90
48836;DHT22;62581;47.342;7.908;2023-05-10T03:07:38;13.50;99.90
48836;DHT22;62581;47.342;7.908;2023-05-10T03:10:05;13.50;99.90
48836;DHT22;62581;47.342;7.908;2023-05-10T03:12:37;13.50;99.90
48836;DHT22;62581;47.342;7.908;2023-05-10T03:15:10;13.50;99.90
48836;DHT22;62581;47.342;7.908;2023-05-10T03:17:41;13.50;99.90
48836;DHT22;62581;47.342;7.908;2023-05-10T03:20:10;13.50;99.90
48836;DHT22;62581;47.342;7.908;2023-05-10T03:22:37;13.50;99.90
48836;DHT22;62581;47.342;7.908;2023-05-10T03:25:05;13.50;99.90
48836;DHT22;62581;47.342;7.908;2023-05-10T03:27:32;13.50;99.90
48836;DHT22;62581;47.342;7.908;2023-05-10T03:30:00;13.50;99.90
48836;DHT22;62581;47.342;7.908;2023-05-10T03:32:29;13.50;99.90
48836;DHT22;62581;47.342;7.908;2023-05-10T03:34:57;13.50;99.90
48836;DHT22;62581;47.342;7.908;2023-05-10T03:37:23;13.40;99.90
48836;DHT22;62581;47.342;7.908;2023-05-10T03:39:50;13.40;99.90
48836;DHT22;62581;47.342;7.908;2023-05-10T03:42:17;13.40;99.90
48836;DHT22;62581;47.342;7.908;2023-05-10T03:44:44;13.40;99.90
48836;DHT22;62581;47.342;7.908;2023-05-10T03:47:11;13.40;99.90
48836;DHT22;62581;47.342;7.908;2023-05-10T03:49:39;13.40;99.90
48836;DHT22;62581;47.342;7.908;2023-05-10T03:52:05;13.40;99.90
48836;DHT22;62581;47.342;7.908;2023-05-10T03:54:32;13.30;99.90
48836;DHT22;62581;47.342;7.908;2023-05-10T03:56:59;13.40;99.90
48836;DHT22;62581;47.342;7.908;2023-05-10T03:59:26;13.30;99.90
48836;DHT22;62581;47.342;7.908;2023-05-10T04:01:53;13.30;99.90
48836;DHT22;62581;47.342;7.908;2023-05-10T04:04:20;13.30;99.90
48836;DHT22;62581;47.342;7.908;2023-05-10T04:06:48;13.30;99.90
48836;DHT22;62581;47.342;7.908;2023-05-10T04:09:15;13.30;99.90
48836;DHT22;62581;47.342;7.908;2023-05-10T04:11:42;13.20;99.90
48836;DHT22;62581;47.342;7.908;2023-05-10T04:14:09;13.30;99.90
48836;DHT22;62581;47.342;7.908;2023-05-10T04:16:36;13.30;99.90
48836;DHT22;62581;47.342;7.908;2023-05-10T04:19:02;13.30;99.90
48836;DHT22;62581;47.342;7.908;2023-05-10T04:21:29;13.20;99.90
48836;DHT22;62581;47.342;7.908;2023-05-10T04:23:57;13.30;99.90
48836;DHT22;62581;47.342;7.908;2023-05-10T04:26:24;13.30;99.90
48836;DHT22;62581;47.342;7.908;2023-05-10T04:28:51;13.30;99.90
48836;DHT22;62581;47.342;7.908;2023-05-10T04:31:18;13.30;99.90
48836;DHT22;62581;47.342;7.908;2023-05-10T04:33:45;13.30;99.90
48836;DHT22;62581;47.342;7.908;2023-05-10T04:36:11;13.30;99.90
48836;DHT22;62581;47.342;7.908;2023-05-10T04:38:38;13.30;99.90
48836;DHT22;62581;47.342;7.908;2023-05-10T04:41:07;13.30;99.90
48836;DHT22;62581;47.342;7.908;2023-05-10T04:43:34;13.30;99.90
48836;DHT22;62581;47.342;7.908;2023-05-10T04:46:01;13.30;99.90
48836;DHT22;62581;47.342;7.908;2023-05-10T04:48:28;13.30;99.90
48836;DHT22;62581;47.342;7.908;2023-05-10T04:50:54;13.30;99.90
48836;DHT22;62581;47.342;7.908;2023-05-10T04:53:21;13.30;99.90
48836;DHT22;62581;47.342;7.908;2023-05-10T04:55:48;13.30;99.90
48836;DHT22;62581;47.342;7.908;2023-05-10T04:58:16;13.20;99.90
48836;DHT22;62581;47.342;7.908;2023-05-10T05:00:43;13.20;99.90
48836;DHT22;62581;47.342;7.908;2023-05-10T05:03:10;13.20;99.90
48836;DHT22;62581;47.342;7.908;2023-05-10T05:05:37;13.20;99.90
48836;DHT22;62581;47.342;7.908;2023-05-10T05:08:04;13.20;99.90
48836;DHT22;62581;47.342;7.908;2023-05-10T05:10:30;13.20;99.90
48836;DHT22;62581;47.342;7.908;2023-05-10T05:12:57;13.20;99.90
48836;DHT22;62581;47.342;7.908;2023-05-10T05:15:25;13.20;99.90
48836;DHT22;62581;47.342;7.908;2023-05-10T05:17:52;13.20;99.90
48836;DHT22;62581;47.342;7.908;2023-05-10T05:20:19;13.20;99.90
48836;DHT22;62581;47.342;7.908;2023-05-10T05:22:46;13.10;99.90
48836;DHT22;62581;47.342;7.908;2023-05-10T05:25:13;13.10;99.90
48836;DHT22;62581;47.342;7.908;2023-05-10T05:27:40;13.10;99.90
48836;DHT22;62581;47.342;7.908;2023-05-10T05:30:07;13.20;99.90
48836;DHT22;62581;47.342;7.908;2023-05-10T05:32:35;13.10;99.90
48836;DHT22;62581;47.342;7.908;2023-05-10T05:35:02;13.10;99.90
48836;DHT22;62581;47.342;7.908;2023-05-10T05:37:29;13.10;99.90
48836;DHT22;62581;47.342;7.908;2023-05-10T05:39:56;13.10;99.90
48836;DHT22;62581;47.342;7.908;2023-05-10T05:42:22;13.20;99.90
48836;DHT22;62581;47.342;7.908;2023-05-10T05:44:49;13.20;99.90
48836;DHT22;62581;47.342;7.908;2023-05-10T05:47:16;13.20;99.90
48836;DHT22;62581;47.342;7.908;2023-05-10T05:49:44;13.20;99.90
48836;DHT22;62581;47.342;7.908;2023-05-10T05:52:11;13.20;99.90
48836;DHT22;62581;47.342;7.908;2023-05-10T05:54:38;13.20;99.90
48836;DHT22;62581;47.342;7.908;2023-05-10T05:57:05;13.20;99.90
48836;DHT22;62581;47.342;7.908;2023-05-10T05:59:32;13.20;99.90
48836;DHT22;62581;47.342;7.908;2023-05-10T06:01:59;13.20;99.90
48836;DHT22;62581;47.342;7.908;2023-05-10T06:04:26;13.20;99.90
48836;DHT22;62581;47.342;7.908;2023-05-10T06:06:54;13.20;99.90
48836;DHT22;62581;47.342;7.908;2023-05-10T06:09:21;13.20;99.90
48836;DHT22;62581;47.342;7.908;2023-05-10T06:11:49;13.30;99.90
48836;DHT22;62581;47.342;7.908;2023-05-10T06:14:15;13.30;99.90
48836;DHT22;62581;47.342;7.908;2023-05-10T06:16:42;13.30;99.90
48836;DHT22;62581;47.342;7.908;2023-05-10T06:19:09;13.20;99.90
48836;DHT22;62581;47.342;7.908;2023-05-10T06:21:36;13.30;99.90
48836;DHT22;62581;47.342;7.908;2023-05-10T06:24:04;13.30;99.90
48836;DHT22;62581;47.342;7.908;2023-05-10T06:26:33;13.30;99.90
48836;DHT22;62581;47.342;7.908;2023-05-10T06:28:59;13.30;99.90
48836;DHT22;62581;47.342;7.908;2023-05-10T06:31:26;13.30;99.90
48836;DHT22;62581;47.342;7.908;2023-05-10T06:33:53;13.30;99.90
48836;DHT22;62581;47.342;7.908;2023-05-10T06:36:20;13.30;99.90
48836;DHT22;62581;47.342;7.908;2023-05-10T06:38:47;13.30;99.90
48836;DHT22;62581;47.342;7.908;2023-05-10T06:41:15;13.30;99.90
48836;DHT22;62581;47.342;7.908;2023-05-10T06:43:42;13.30;99.90
48836;DHT22;62581;47.342;7.908;2023-05-10T06:46:09;13.40;99.90
48836;DHT22;62581;47.342;7.908;2023-05-10T06:48:35;13.40;99.90
48836;DHT22;62581;47.342;7.908;2023-05-10T06:51:02;13.50;99.90
48836;DHT22;62581;47.342;7.908;2023-05-10T06:53:29;13.50;99.90
48836;DHT22;62581;47.342;7.908;2023-05-10T06:55:56;13.40;99.90
48836;DHT22;62581;47.342;7.908;2023-05-10T06:58:24;13.50;99.90
48836;DHT22;62581;47.342;7.908;2023-05-10T07:00:51;13.50;99.90
48836;DHT22;62581;47.342;7.908;2023-05-10T07:03:17;13.50;99.90
48836;DHT22;62581;47.342;7.908;2023-05-10T07:05:44;13.60;99.90
48836;DHT22;62581;47.342;7.908;2023-05-10T07:08:11;13.70;99.90
48836;DHT22;62581;47.342;7.908;2023-05-10T07:10:38;13.90;99.90
48836;DHT22;62581;47.342;7.908;2023-05-10T07:13:05;14.00;99.90
48836;DHT22;62581;47.342;7.908;2023-05-10T07:15:33;14.10;99.90
48836;DHT22;62581;47.342;7.908;2023-05-10T07:18:00;14.30;99.90
48836;DHT22;62581;47.342;7.908;2023-05-10T07:20:27;14.30;99.90
48836;DHT22;62581;47.342;7.908;2023-05-10T07:22:53;14.40;99.90
48836;DHT22;62581;47.342;7.908;2023-05-10T07:25:20;14.40;99.90
48836;DHT22;62581;47.342;7.908;2023-05-10T07:27:47;14.40;99.90
48836;DHT22;62581;47.342;7.908;2023-05-10T07:30:14;14.40;99.90
48836;DHT22;62581;47.342;7.908;2023-05-10T07:32:42;14.60;99.90
48836;DHT22;62581;47.342;7.908;2023-05-10T07:35:09;14.70;99.90
48836;DHT22;62581;47.342;7.908;2023-05-10T07:37:36;14.80;99.90
48836;DHT22;62581;47.342;7.908;2023-05-10T07:40:03;14.90;99.90
48836;DHT22;62581;47.342;7.908;2023-05-10T07:42:30;15.10;99.90
48836;DHT22;62581;47.342;7.908;2023-05-10T07:44:56;15.20;99.90
48836;DHT22;62581;47.342;7.908;2023-05-10T07:47:23;15.30;99.90
48836;DHT22;62581;47.342;7.908;2023-05-10T07:49:51;15.30;99.90
48836;DHT22;62581;47.342;7.908;2023-05-10T07:52:18;15.30;99.90
48836;DHT22;62581;47.342;7.908;2023-05-10T07:54:45;15.20;99.90
48836;DHT22;62581;47.342;7.908;2023-05-10T07:57:11;15.10;99.90
48836;DHT22;62581;47.342;7.908;2023-05-10T07:59:39;15.10;99.90
48836;DHT22;62581;47.342;7.908;2023-05-10T08:02:06;15.10;99.90
48836;DHT22;62581;47.342;7.908;2023-05-10T08:04:33;15.10;99.90
48836;DHT22;62581;47.342;7.908;2023-05-10T08:07:01;15.10;99.90
48836;DHT22;62581;47.342;7.908;2023-05-10T08:09:28;15.00;99.90
48836;DHT22;62581;47.342;7.908;2023-05-10T08:11:55;14.80;99.90
48836;DHT22;62581;47.342;7.908;2023-05-10T08:14:22;15.00;99.90
48836;DHT22;62581;47.342;7.908;2023-05-10T08:16:48;14.90;99.90
48836;DHT22;62581;47.342;7.908;2023-05-10T08:19:15;15.00;99.90
48836;DHT22;62581;47.342;7.908;2023-05-10T08:21:44;15.20;99.90
48836;DHT22;62581;47.342;7.908;2023-05-10T08:24:12;15.40;99.90
48836;DHT22;62581;47.342;7.908;2023-05-10T08:26:39;15.60;99.90
48836;DHT22;62581;47.342;7.908;2023-05-10T08:29:06;15.80;99.90
48836;DHT22;62581;47.342;7.908;2023-05-10T08:31:34;16.10;99.90
48836;DHT22;62581;47.342;7.908;2023-05-10T08:34:00;16.30;99.90
48836;DHT22;62581;47.342;7.908;2023-05-10T08:36:27;16.30;99.90
48836;DHT22;62581;47.342;7.908;2023-05-10T08:38:54;16.30;99.90
48836;DHT22;62581;47.342;7.908;2023-05-10T08:41:23;16.40;99.90
48836;DHT22;62581;47.342;7.908;2023-05-10T08:43:51;16.50;99.90
48836;DHT22;62581;47.342;7.908;2023-05-10T08:46:18;16.90;99.90
48836;DHT22;62581;47.342;7.908;2023-05-10T08:48:45;16.90;99.90
48836;DHT22;62581;47.342;7.908;2023-05-10T08:51:13;16.80;99.90
48836;DHT22;62581;47.342;7.908;2023-05-10T08:53:40;16.80;99.90
48836;DHT22;62581;47.342;7.908;2023-05-10T08:56:07;16.70;99.90
48836;DHT22;62581;47.342;7.908;2023-05-10T08:58:35;16.60;99.90
48836;DHT22;62581;47.342;7.908;2023-05-10T09:01:02;16.60;99.90
48836;DHT22;62581;47.342;7.908;2023-05-10T09:03:29;16.40;99.90
48836;DHT22;62581;47.342;7.908;2023-05-10T09:05:56;16.60;99.90
48836;DHT22;62581;47.342;7.908;2023-05-10T09:08:23;16.30;99.90
48836;DHT22;62581;47.342;7.908;2023-05-10T09:10:51;15.90;99.90
48836;DHT22;62581;47.342;7.908;2023-05-10T09:13:18;16.30;99.90
48836;DHT22;62581;47.342;7.908;2023-05-10T09:15:47;16.50;99.90
48836;DHT22;62581;47.342;7.908;2023-05-10T09:18:14;16.80;99.90
48836;DHT22;62581;47.342;7.908;2023-05-10T09:20:41;17.10;99.90
48836;DHT22;62581;47.342;7.908;2023-05-10T09:23:07;16.80;99.90
48836;DHT22;62581;47.342;7.908;2023-05-10T09:25:34;16.90;99.90
48836;DHT22;62581;47.342;7.908;2023-05-10T09:28:02;16.50;99.90
48836;DHT22;62581;47.342;7.908;2023-05-10T09:30:32;16.50;99.90
48836;DHT22;62581;47.342;7.908;2023-05-10T09:33:00;16.30;99.90
48836;DHT22;62581;47.342;7.908;2023-05-10T09:35:28;16.40;99.90
48836;DHT22;62581;47.342;7.908;2023-05-10T09:37:56;16.20;99.90
48836;DHT22;62581;47.342;7.908;2023-05-10T09:40:23;15.80;99.90
48836;DHT22;62581;47.342;7.908;2023-05-10T09:42:51;15.90;99.90
48836;DHT22;62581;47.342;7.908;2023-05-10T09:45:18;16.00;99.90
48836;DHT22;62581;47.342;7.908;2023-05-10T09:47:45;16.30;99.90
48836;DHT22;62581;47.342;7.908;2023-05-10T09:50:13;16.30;99.90
48836;DHT22;62581;47.342;7.908;2023-05-10T09:52:45;16.20;99.90
48836;DHT22;62581;47.342;7.908;2023-05-10T09:55:12;16.50;99.90
48836;DHT22;62581;47.342;7.908;2023-05-10T09:57:39;16.50;99.90
48836;DHT22;62581;47.342;7.908;2023-05-10T10:00:07;16.50;99.90
48836;DHT22;62581;47.342;7.908;2023-05-10T10:02:35;16.50;99.90
48836;DHT22;62581;47.342;7.908;2023-05-10T10:05:02;16.50;99.90
48836;DHT22;62581;47.342;7.908;2023-05-10T10:07:30;16.70;99.90
48836;DHT22;62581;47.342;7.908;2023-05-10T10:09:58;17.40;99.90
48836;DHT22;62581;47.342;7.908;2023-05-10T10:12:25;17.90;99.90
48836;DHT22;62581;47.342;7.908;2023-05-10T10:14:52;17.80;99.90
48836;DHT22;62581;47.342;7.908;2023-05-10T10:17:19;17.20;99.90
48836;DHT22;62581;47.342;7.908;2023-05-10T10:19:46;17.40;99.90
48836;DHT22;62581;47.342;7.908;2023-05-10T10:22:14;17.10;99.90
48836;DHT22;62581;47.342;7.908;2023-05-10T10:24:43;17.10;99.90
48836;DHT22;62581;47.342;7.908;2023-05-10T10:27:19;17.10;99.90
48836;DHT22;62581;47.342;7.908;2023-05-10T10:29:49;16.80;99.90
48836;DHT22;62581;47.342;7.908;2023-05-10T10:32:21;16.60;99.90
48836;DHT22;62581;47.342;7.908;2023-05-10T10:34:48;16.70;99.90
48836;DHT22;62581;47.342;7.908;2023-05-10T10:37:15;16.70;99.90
48836;DHT22;62581;47.342;7.908;2023-05-10T10:39:44;16.60;99.90
48836;DHT22;62581;47.342;7.908;2023-05-10T10:42:11;16.10;99.90
48836;DHT22;62581;47.342;7.908;2023-05-10T10:44:37;16.00;99.90
48836;DHT22;62581;47.342;7.908;2023-05-10T10:47:21;16.20;99.90
48836;DHT22;62581;47.342;7.908;2023-05-10T10:49:50;16.50;99.90
48836;DHT22;62581;47.342;7.908;2023-05-10T10:52:21;16.30;99.90
48836;DHT22;62581;47.342;7.908;2023-05-10T10:54:56;16.90;99.90
48836;DHT22;62581;47.342;7.908;2023-05-10T10:57:24;17.30;99.90
48836;DHT22;62581;47.342;7.908;2023-05-10T10:59:51;17.20;99.90
48836;DHT22;62581;47.342;7.908;2023-05-10T11:02:34;17.30;99.90
48836;DHT22;62581;47.342;7.908;2023-05-10T11:07:51;17.70;99.90
48836;DHT22;62581;47.342;7.908;2023-05-10T11:10:20;17.60;99.90
48836;DHT22;62581;47.342;7.908;2023-05-10T11:12:53;17.60;99.90
48836;DHT22;62581;47.342;7.908;2023-05-10T11:15:29;17.60;99.90
48836;DHT22;62581;47.342;7.908;2023-05-10T11:17:56;17.90;99.90
48836;DHT22;62581;47.342;7.908;2023-05-10T11:20:23;18.10;99.90
48836;DHT22;62581;47.342;7.908;2023-05-10T11:22:54;18.30;99.90
48836;DHT22;62581;47.342;7.908;2023-05-10T11:25:27;17.80;99.90
48836;DHT22;62581;47.342;7.908;2023-05-10T11:27:54;18.10;99.90
48836;DHT22;62581;47.342;7.908;2023-05-10T11:30:22;18.40;99.90
48836;DHT22;62581;47.342;7.908;2023-05-10T11:32:48;18.40;99.90
48836;DHT22;62581;47.342;7.908;2023-05-10T11:35:15;18.40;99.90
48836;DHT22;62581;47.342;7.908;2023-05-10T11:37:42;18.80;99.90
48836;DHT22;62581;47.342;7.908;2023-05-10T11:40:11;19.20;99.90
48836;DHT22;62581;47.342;7.908;2023-05-10T11:42:39;19.30;99.90
48836;DHT22;62581;47.342;7.908;2023-05-10T11:45:06;18.90;99.90
48836;DHT22;62581;47.342;7.908;2023-05-10T11:47:33;19.00;99.90
48836;DHT22;62581;47.342;7.908;2023-05-10T11:50:02;19.10;99.90
48836;DHT22;62581;47.342;7.908;2023-05-10T11:52:29;18.50;99.90
48836;DHT22;62581;47.342;7.908;2023-05-10T11:54:55;18.10;99.90
48836;DHT22;62581;47.342;7.908;2023-05-10T11:57:25;17.90;99.90
48836;DHT22;62581;47.342;7.908;2023-05-10T11:59:54;18.10;99.90
48836;DHT22;62581;47.342;7.908;2023-05-10T12:02:21;18.00;99.90
48836;DHT22;62581;47.342;7.908;2023-05-10T12:04:47;17.90;99.90
48836;DHT22;62581;47.342;7.908;2023-05-10T12:07:15;18.00;99.90
48836;DHT22;62581;47.342;7.908;2023-05-10T12:09:43;18.20;99.90
48836;DHT22;62581;47.342;7.908;2023-05-10T12:12:10;18.50;99.90
48836;DHT22;62581;47.342;7.908;2023-05-10T12:14:37;18.60;99.90
48836;DHT22;62581;47.342;7.908;2023-05-10T12:17:05;17.90;99.90
48836;DHT22;62581;47.342;7.908;2023-05-10T12:19:36;18.10;99.90
48836;DHT22;62581;47.342;7.908;2023-05-10T12:22:04;18.10;99.90
48836;DHT22;62581;47.342;7.908;2023-05-10T12:24:33;18.00;99.90
48836;DHT22;62581;47.342;7.908;2023-05-10T12:27:00;18.00;99.90
48836;DHT22;62581;47.342;7.908;2023-05-10T12:29:30;18.30;99.90
48836;DHT22;62581;47.342;7.908;2023-05-10T12:31:58;18.30;99.90
48836;DHT22;62581;47.342;7.908;2023-05-10T12:34:29;17.90;99.90
48836;DHT22;62581;47.342;7.908;2023-05-10T12:36:56;17.70;99.90
48836;DHT22;62581;47.342;7.908;2023-05-10T12:39:23;17.50;99.90
48836;DHT22;62581;47.342;7.908;2023-05-10T12:41:50;17.40;99.90
48836;DHT22;62581;47.342;7.908;2023-05-10T12:44:17;17.50;99.90
48836;DHT22;62581;47.342;7.908;2023-05-10T12:46:44;17.60;99.90
48836;DHT22;62581;47.342;7.908;2023-05-10T12:49:11;17.80;99.90
48836;DHT22;62581;47.342;7.908;2023-05-10T12:51:39;18.10;99.90
48836;DHT22;62581;47.342;7.908;2023-05-10T12:54:05;18.60;99.90
48836;DHT22;62581;47.342;7.908;2023-05-10T12:56:32;18.90;99.90
48836;DHT22;62581;47.342;7.908;2023-05-10T12:58:59;19.10;99.90
48836;DHT22;62581;47.342;7.908;2023-05-10T13:01:26;19.10;99.90
48836;DHT22;62581;47.342;7.908;2023-05-10T13:03:52;19.10;99.90
48836;DHT22;62581;47.342;7.908;2023-05-10T13:06:19;19.00;99.90
48836;DHT22;62581;47.342;7.908;2023-05-10T13:08:47;19.20;99.90
48836;DHT22;62581;47.342;7.908;2023-05-10T13:11:14;20.10;99.90
48836;DHT22;62581;47.342;7.908;2023-05-10T13:13:41;21.70;99.90
48836;DHT22;62581;47.342;7.908;2023-05-10T13:16:08;23.50;99.90
48836;DHT22;62581;47.342;7.908;2023-05-10T13:18:35;25.60;96.40
48836;DHT22;62581;47.342;7.908;2023-05-10T13:21:02;26.50;91.60
48836;DHT22;62581;47.342;7.908;2023-05-10T13:23:30;27.00;91.10
48836;DHT22;62581;47.342;7.908;2023-05-10T13:25:58;25.10;88.40
48836;DHT22;62581;47.342;7.908;2023-05-10T13:28:25;22.80;92.30
48836;DHT22;62581;47.342;7.908;2023-05-10T13:30:52;22.10;92.90
48836;DHT22;62581;47.342;7.908;2023-05-10T13:33:19;22.00;92.60
48836;DHT22;62581;47.342;7.908;2023-05-10T13:35:46;22.00;93.70
48836;DHT22;62581;47.342;7.908;2023-05-10T13:38:12;21.50;93.30
48836;DHT22;62581;47.342;7.908;2023-05-10T13:40:39;20.60;94.90
48836;DHT22;62581;47.342;7.908;2023-05-10T13:43:07;20.30;95.50
48836;DHT22;62581;47.342;7.908;2023-05-10T13:45:34;20.20;96.30
48836;DHT22;62581;47.342;7.908;2023-05-10T13:48:01;19.70;98.60
48836;DHT22;62581;47.342;7.908;2023-05-10T13:50:27;19.70;99.60
48836;DHT22;62581;47.342;7.908;2023-05-10T13:52:54;19.50;99.90
48836;DHT22;62581;47.342;7.908;2023-05-10T13:55:21;19.30;99.90
48836;DHT22;62581;47.342;7.908;2023-05-10T13:57:48;19.20;99.90
48836;DHT22;62581;47.342;7.908;2023-05-10T14:00:16;18.90;99.90
48836;DHT22;62581;47.342;7.908;2023-05-10T14:02:43;18.80;99.90
48836;DHT22;62581;47.342;7.908;2023-05-10T14:05:10;18.80;99.90
48836;DHT22;62581;47.342;7.908;2023-05-10T14:07:36;18.40;99.90
48836;DHT22;62581;47.342;7.908;2023-05-10T14:10:03;17.90;99.90
48836;DHT22;62581;47.342;7.908;2023-05-10T14:12:30;17.90;99.90
48836;DHT22;62581;47.342;7.908;2023-05-10T14:14:57;17.90;99.90
48836;DHT22;62581;47.342;7.908;2023-05-10T14:17:25;18.30;99.90
48836;DHT22;62581;47.342;7.908;2023-05-10T14:19:52;18.50;99.90
48836;DHT22;62581;47.342;7.908;2023-05-10T14:22:19;18.50;99.90
48836;DHT22;62581;47.342;7.908;2023-05-10T14:24:46;18.60;99.90
48836;DHT22;62581;47.342;7.908;2023-05-10T14:27:13;18.50;99.90
48836;DHT22;62581;47.342;7.908;2023-05-10T14:29:40;18.50;99.90
48836;DHT22;62581;47.342;7.908;2023-05-10T14:32:07;19.00;99.90
48836;DHT22;62581;47.342;7.908;2023-05-10T14:34:35;19.50;99.90
48836;DHT22;62581;47.342;7.908;2023-05-10T14:37:02;19.60;99.90
48836;DHT22;62581;47.342;7.908;2023-05-10T14:39:29;20.00;99.90
48836;DHT22;62581;47.342;7.908;2023-05-10T14:41:56;20.30;99.90
48836;DHT22;62581;47.342;7.908;2023-05-10T14:44:23;20.40;99.90
48836;DHT22;62581;47.342;7.908;2023-05-10T14:46:50;21.00;99.90
48836;DHT22;62581;47.342;7.908;2023-05-10T14:49:17;21.20;99.00
48836;DHT22;62581;47.342;7.908;2023-05-10T14:51:45;21.00;98.30
48836;DHT22;62581;47.342;7.908;2023-05-10T14:54:12;20.80;98.80
48836;DHT22;62581;47.342;7.908;2023-05-10T14:56:39;20.60;99.70
48836;DHT22;62581;47.342;7.908;2023-05-10T14:59:06;20.10;99.60
48836;DHT22;62581;47.342;7.908;2023-05-10T15:01:33;20.10;99.90
48836;DHT22;62581;47.342;7.908;2023-05-10T15:04:02;20.40;99.70
48836;DHT22;62581;47.342;7.908;2023-05-10T15:06:32;20.40;99.20
48836;DHT22;62581;47.342;7.908;2023-05-10T15:09:01;20.40;99.90
48836;DHT22;62581;47.342;7.908;2023-05-10T15:11:28;21.10;99.90
48836;DHT22;62581;47.342;7.908;2023-05-10T15:13:55;22.30;95.70
48836;DHT22;62581;47.342;7.908;2023-05-10T15:16:22;23.40;92.30
48836;DHT22;62581;47.342;7.908;2023-05-10T15:18:48;25.80;89.10
48836;DHT22;62581;47.342;7.908;2023-05-10T15:21:15;26.30;85.10
48836;DHT22;62581;47.342;7.908;2023-05-10T15:23:42;26.40;82.60
48836;DHT22;62581;47.342;7.908;2023-05-10T15:26:10;26.70;83.60
48836;DHT22;62581;47.342;7.908;2023-05-10T15:28:37;28.00;80.50
48836;DHT22;62581;47.342;7.908;2023-05-10T15:31:04;28.80;76.90
48836;DHT22;62581;47.342;7.908;2023-05-10T15:33:31;28.70;75.10
48836;DHT22;62581;47.342;7.908;2023-05-10T15:35:58;28.90;74.60
48836;DHT22;62581;47.342;7.908;2023-05-10T15:38:24;28.60;74.00